createdAt,value
2018-05-10T00:01:17.213Z,17.36
2018-05-10T00:03:45.657Z,17.35
2018-05-10T00:06:14.072Z,17.33
2018-05-10T00:08:42.550Z,17.31
2018-05-10T00:11:10.969Z,17.35
2018-05-10T00:13:39.392Z,17.38
2018-05-10T00:16:07.845Z,17.39
2018-05-10T00:18:36.252Z,17.40
2018-05-10T00:21:04.679Z,17.44
2018-05-10T00:23:33.156Z,17.46
2018-05-10T00:26:01.585Z,17.48
2018-05-10T00:28:30.024Z,17.49
2018-05-10T00:30:58.658Z,17.46
2018-05-10T00:33:27.084Z,17.39
2018-05-10T00:35:55.499Z,17.35
2018-05-10T00:38:23.967Z,17.27
2018-05-10T00:40:52.392Z,17.03
2018-05-10T00:43:20.813Z,16.87
2018-05-10T00:45:49.264Z,16.94
2018-05-10T00:48:17.696Z,16.94
2018-05-10T00:50:46.429Z,16.85
2018-05-10T00:53:14.909Z,16.78
2018-05-10T00:55:43.330Z,16.68
2018-05-10T00:58:11.760Z,16.59
2018-05-10T01:00:40.228Z,16.48
2018-05-10T01:03:09.609Z,16.41
2018-05-10T01:05:38.889Z,16.37
2018-05-10T01:08:07.355Z,16.35
2018-05-10T01:10:35.775Z,16.34
2018-05-10T01:13:04.228Z,16.35
2018-05-10T01:15:32.696Z,16.37
2018-05-10T01:18:01.129Z,16.37
2018-05-10T01:20:29.550Z,16.40
2018-05-10T01:22:58.033Z,16.42
2018-05-10T01:25:26.465Z,16.38
2018-05-10T01:27:54.898Z,16.28
2018-05-10T01:30:23.368Z,16.21
2018-05-10T01:32:51.787Z,16.13
2018-05-10T01:35:31.917Z,16.15
2018-05-10T01:38:00.344Z,16.14
2018-05-10T01:40:28.775Z,16.13
2018-05-10T01:42:57.260Z,16.05
2018-05-10T01:45:25.725Z,15.95
2018-05-10T01:47:54.160Z,15.86
2018-05-10T01:50:22.637Z,15.81
2018-05-10T01:52:51.060Z,15.77
2018-05-10T01:55:19.517Z,15.74
2018-05-10T01:57:47.973Z,15.79
2018-05-10T02:00:16.416Z,15.85
2018-05-10T02:02:44.848Z,15.93
2018-05-10T02:05:13.344Z,16.00
2018-05-10T02:07:41.768Z,16.06
2018-05-10T02:10:10.194Z,16.06
2018-05-10T02:12:38.663Z,16.07
2018-05-10T02:15:07.116Z,16.12
2018-05-10T02:17:35.536Z,16.09
2018-05-10T02:20:04.048Z,16.10
2018-05-10T02:22:32.472Z,16.06
2018-05-10T02:25:00.894Z,16.04
2018-05-10T02:27:29.363Z,16.01
2018-05-10T02:29:57.787Z,15.99
2018-05-10T02:32:26.233Z,15.84
2018-05-10T02:34:54.697Z,15.88
2018-05-10T02:37:23.116Z,15.86
2018-05-10T02:39:51.556Z,15.76
2018-05-10T02:42:20.021Z,15.69
2018-05-10T02:44:48.437Z,15.62
2018-05-10T02:47:16.895Z,15.55
2018-05-10T02:49:45.357Z,15.51
2018-05-10T02:52:13.788Z,15.47
2018-05-10T02:54:42.211Z,15.41
2018-05-10T02:57:10.696Z,15.35
2018-05-10T02:59:39.141Z,15.37
2018-05-10T03:02:07.573Z,15.23
2018-05-10T03:04:36.028Z,15.28
2018-05-10T03:07:04.458Z,15.23
2018-05-10T03:09:32.883Z,15.18
2018-05-10T03:12:01.347Z,15.29
2018-05-10T03:14:29.770Z,15.29
2018-05-10T03:16:58.215Z,15.30
2018-05-10T03:19:26.698Z,15.30
2018-05-10T03:21:55.154Z,15.28
2018-05-10T03:24:23.560Z,15.30
2018-05-10T03:26:52.015Z,15.20
2018-05-10T03:29:20.440Z,14.86
2018-05-10T03:31:48.865Z,14.71
2018-05-10T03:34:17.371Z,14.57
2018-05-10T03:36:45.804Z,14.43
2018-05-10T03:39:14.232Z,14.34
2018-05-10T03:41:42.706Z,14.55
2018-05-10T03:44:11.137Z,14.60
2018-05-10T03:46:39.562Z,14.83
2018-05-10T03:49:08.047Z,15.00
2018-05-10T03:51:36.460Z,14.96
2018-05-10T03:54:04.892Z,15.01
2018-05-10T03:56:33.353Z,15.02
2018-05-10T03:59:01.768Z,15.03
2018-05-10T04:01:30.192Z,15.05
2018-05-10T04:04:10.402Z,15.00
2018-05-10T04:06:50.560Z,14.98
2018-05-10T04:09:30.817Z,14.93
2018-05-10T04:11:59.237Z,14.86
2018-05-10T04:14:27.656Z,14.94
2018-05-10T04:16:56.116Z,14.95
2018-05-10T04:19:24.566Z,15.01
2018-05-10T04:21:52.996Z,15.06
2018-05-10T04:24:21.453Z,15.09
2018-05-10T04:26:49.890Z,15.08
2018-05-10T04:29:18.319Z,15.08
2018-05-10T04:31:46.792Z,15.16
2018-05-10T04:34:15.236Z,15.23
2018-05-10T04:36:43.670Z,15.18
2018-05-10T04:39:12.141Z,15.19
2018-05-10T04:41:40.573Z,15.19
2018-05-10T04:44:08.998Z,15.20
2018-05-10T04:46:37.494Z,15.25
2018-05-10T04:49:05.908Z,15.22
2018-05-10T04:51:34.323Z,15.25
2018-05-10T04:54:02.776Z,15.34
2018-05-10T04:56:31.193Z,15.45
2018-05-10T04:58:59.616Z,15.55
2018-05-10T05:01:28.077Z,15.70
2018-05-10T05:03:56.569Z,15.78
2018-05-10T05:06:25.000Z,15.89
2018-05-10T05:08:53.511Z,16.00
2018-05-10T05:11:21.940Z,16.08
2018-05-10T05:13:50.361Z,16.18
2018-05-10T05:16:18.821Z,16.31
2018-05-10T05:18:47.244Z,16.43
2018-05-10T05:21:15.668Z,16.51
2018-05-10T05:23:44.149Z,16.64
2018-05-10T05:26:12.582Z,16.75
2018-05-10T05:28:41.019Z,16.89
2018-05-10T05:31:09.489Z,16.96
2018-05-10T05:33:37.923Z,17.03
2018-05-10T05:36:06.350Z,17.07
2018-05-10T05:38:34.823Z,17.12
2018-05-10T05:41:03.312Z,17.19
2018-05-10T05:43:31.790Z,17.25
2018-05-10T05:46:00.245Z,17.36
2018-05-10T05:48:28.665Z,17.44
2018-05-10T05:50:57.104Z,17.52
2018-05-10T05:53:25.574Z,17.60
2018-05-10T05:55:54.011Z,17.77
2018-05-10T05:58:22.442Z,17.83
2018-05-10T06:00:50.980Z,17.98
2018-05-10T06:03:19.356Z,18.13
2018-05-10T06:05:47.785Z,18.29
2018-05-10T06:08:16.253Z,18.42
2018-05-10T06:10:44.682Z,18.53
2018-05-10T06:13:13.106Z,18.74
2018-05-10T06:15:41.594Z,18.86
2018-05-10T06:18:10.031Z,18.96
2018-05-10T06:20:38.466Z,19.07
2018-05-10T06:23:06.944Z,19.21
2018-05-10T06:25:35.373Z,19.21
2018-05-10T06:28:03.785Z,19.29
2018-05-10T06:30:32.252Z,19.39
2018-05-10T06:33:00.668Z,19.55
2018-05-10T06:35:29.084Z,19.62
2018-05-10T06:37:57.566Z,19.69
2018-05-10T06:40:25.991Z,19.95
2018-05-10T06:42:54.411Z,20.18
2018-05-10T06:45:22.885Z,20.26
2018-05-10T06:47:51.301Z,20.42
2018-05-10T06:50:19.732Z,20.44
2018-05-10T06:52:48.201Z,20.54
2018-05-10T06:55:16.642Z,20.58
2018-05-10T06:57:45.071Z,20.67
2018-05-10T07:00:13.542Z,20.69
2018-05-10T07:02:41.975Z,20.68
2018-05-10T07:05:10.400Z,20.77
2018-05-10T07:07:38.897Z,20.89
2018-05-10T07:10:07.323Z,20.85
2018-05-10T07:12:35.760Z,20.94
2018-05-10T07:15:04.221Z,20.99
2018-05-10T07:17:32.665Z,21.15
2018-05-10T07:20:01.084Z,21.15
2018-05-10T07:22:29.578Z,21.24
2018-05-10T07:24:57.997Z,21.45
2018-05-10T07:27:26.433Z,21.61
2018-05-10T07:29:54.908Z,21.70
2018-05-10T07:32:23.325Z,21.78
2018-05-10T07:34:51.742Z,21.84
2018-05-10T07:37:20.212Z,21.89
2018-05-10T07:39:48.630Z,21.93
2018-05-10T07:42:17.045Z,22.05
2018-05-10T07:44:45.543Z,22.24
2018-05-10T07:47:14.089Z,22.45
2018-05-10T07:49:42.446Z,22.59
2018-05-10T07:52:10.902Z,22.67
2018-05-10T07:54:39.321Z,22.75
2018-05-10T07:57:07.736Z,22.86
2018-05-10T07:59:36.217Z,22.95
2018-05-10T08:02:04.639Z,23.06
2018-05-10T08:04:33.049Z,23.14
2018-05-10T08:07:01.507Z,23.11
2018-05-10T08:09:29.952Z,23.15
2018-05-10T08:11:58.379Z,23.16
2018-05-10T08:14:26.841Z,23.16
2018-05-10T08:16:55.296Z,23.25
2018-05-10T08:19:23.741Z,23.30
2018-05-10T08:21:52.220Z,23.34
2018-05-10T08:24:20.685Z,23.43
2018-05-10T08:26:49.084Z,23.43
2018-05-10T08:29:17.545Z,23.58
2018-05-10T08:31:45.964Z,23.60
2018-05-10T08:34:14.379Z,23.78
2018-05-10T08:36:42.912Z,23.89
2018-05-10T08:39:11.319Z,23.90
2018-05-10T08:41:39.735Z,24.03
2018-05-10T08:44:08.212Z,24.12
2018-05-10T08:46:36.628Z,24.21
2018-05-10T08:49:05.065Z,24.18
2018-05-10T08:51:33.557Z,24.31
2018-05-10T08:54:01.972Z,24.29
2018-05-10T08:56:30.380Z,24.49
2018-05-10T08:58:58.830Z,24.60
2018-05-10T09:01:27.236Z,24.66
2018-05-10T09:03:55.790Z,24.80
2018-05-10T09:06:24.264Z,24.73
2018-05-10T09:08:52.691Z,24.87
2018-05-10T09:11:21.098Z,24.76
2018-05-10T09:13:49.569Z,24.74
2018-05-10T09:16:18.035Z,24.86
2018-05-10T09:18:46.447Z,24.94
2018-05-10T09:21:14.940Z,25.04
2018-05-10T09:23:43.381Z,25.17
2018-05-10T09:26:11.809Z,25.32
2018-05-10T09:28:40.291Z,25.48
2018-05-10T09:31:08.715Z,25.72
2018-05-10T09:33:37.129Z,25.67
2018-05-10T09:36:05.598Z,25.71
2018-05-10T09:38:34.073Z,25.71
2018-05-10T09:41:02.463Z,25.83
2018-05-10T09:43:30.924Z,25.83
2018-05-10T09:45:59.350Z,26.01
2018-05-10T09:48:27.766Z,26.10
2018-05-10T09:50:56.213Z,26.15
2018-05-10T09:53:24.637Z,26.18
2018-05-10T09:55:53.044Z,26.31
2018-05-10T09:58:21.517Z,26.39
2018-05-10T10:00:49.940Z,26.52
2018-05-10T10:03:18.356Z,26.60
2018-05-10T10:05:46.868Z,26.67
2018-05-10T10:08:15.289Z,26.55
2018-05-10T10:10:43.712Z,26.50
2018-05-10T10:13:12.200Z,26.76
2018-05-10T10:15:40.720Z,26.84
2018-05-10T10:18:09.085Z,26.91
2018-05-10T10:20:37.553Z,26.96
2018-05-10T10:23:05.993Z,26.97
2018-05-10T10:25:34.420Z,27.05
2018-05-10T10:28:02.904Z,26.94
2018-05-10T10:30:31.338Z,26.53
2018-05-10T10:32:59.765Z,26.28
2018-05-10T10:35:28.232Z,26.19
2018-05-10T10:37:56.656Z,26.26
2018-05-10T10:40:25.072Z,26.23
2018-05-10T10:42:53.542Z,26.21
2018-05-10T10:45:22.021Z,26.03
2018-05-10T10:47:50.406Z,25.90
2018-05-10T10:50:18.889Z,25.59
2018-05-10T10:52:47.358Z,25.26
2018-05-10T10:55:15.787Z,25.25
2018-05-10T10:57:44.265Z,25.46
2018-05-10T11:00:12.696Z,25.19
2018-05-10T11:02:41.121Z,25.37
2018-05-10T11:05:09.616Z,25.54
2018-05-10T11:07:38.049Z,25.55
2018-05-10T11:10:06.482Z,25.66
2018-05-10T11:12:34.951Z,25.65
2018-05-10T11:15:03.406Z,25.90
2018-05-10T11:17:31.840Z,25.79
2018-05-10T11:20:00.313Z,25.88
2018-05-10T11:22:28.765Z,25.66
2018-05-10T11:24:57.204Z,25.43
2018-05-10T11:27:25.733Z,24.98
2018-05-10T11:29:54.133Z,24.40
2018-05-10T11:32:22.566Z,24.17
2018-05-10T11:34:51.050Z,24.11
2018-05-10T11:37:19.490Z,24.22
2018-05-10T11:39:47.918Z,23.91
2018-05-10T11:42:16.389Z,23.87
2018-05-10T11:44:44.826Z,23.84
2018-05-10T11:47:13.250Z,23.62
2018-05-10T11:49:41.726Z,23.51
2018-05-10T11:52:10.181Z,23.36
2018-05-10T11:54:38.620Z,23.05
2018-05-10T11:57:07.109Z,22.97
2018-05-10T11:59:35.572Z,22.90
2018-05-10T12:02:04.013Z,22.80
2018-05-10T12:07:07.050Z,22.68
2018-05-10T12:09:35.505Z,22.74
2018-05-10T12:12:03.943Z,22.59
2018-05-10T12:14:32.380Z,22.57
2018-05-10T12:17:00.864Z,22.56
2018-05-10T12:19:29.366Z,22.47
2018-05-10T12:21:57.799Z,22.36
2018-05-10T12:24:26.256Z,22.34
2018-05-10T12:26:54.734Z,22.30
2018-05-10T12:29:23.157Z,22.30
2018-05-10T12:31:51.641Z,22.43
2018-05-10T12:34:20.068Z,22.40
2018-05-10T12:36:48.513Z,22.28
2018-05-10T12:39:16.992Z,22.23
2018-05-10T12:41:45.450Z,22.25
2018-05-10T12:44:13.880Z,22.22
2018-05-10T12:46:42.346Z,22.14
2018-05-10T12:49:10.768Z,22.16
2018-05-10T12:51:39.193Z,22.09
2018-05-10T12:54:07.657Z,21.90
2018-05-10T12:56:36.077Z,21.95
2018-05-10T12:59:04.524Z,21.90
2018-05-10T13:01:33.012Z,21.80
2018-05-10T13:04:01.455Z,21.58
2018-05-10T13:06:29.895Z,21.32
2018-05-10T13:08:58.390Z,21.19
2018-05-10T13:11:26.811Z,21.16
2018-05-10T13:13:55.263Z,20.89
2018-05-10T13:16:23.732Z,20.74
2018-05-10T13:18:52.182Z,20.70
2018-05-10T13:21:20.614Z,20.72
2018-05-10T13:23:49.112Z,20.53
2018-05-10T13:26:17.545Z,20.61
2018-05-10T13:28:45.990Z,20.52
2018-05-10T13:31:14.464Z,20.54
2018-05-10T13:33:42.963Z,20.51
2018-05-10T13:36:11.353Z,20.52
2018-05-10T13:38:39.838Z,20.56
2018-05-10T13:41:08.252Z,20.59
2018-05-10T13:43:36.681Z,20.56
2018-05-10T13:46:05.156Z,20.47
2018-05-10T13:48:33.606Z,20.38
2018-05-10T13:51:02.037Z,20.35
2018-05-10T13:53:30.501Z,20.28
2018-05-10T13:55:58.925Z,20.28
2018-05-10T13:58:27.360Z,20.18
2018-05-10T14:00:55.827Z,20.15
2018-05-10T14:03:24.260Z,20.14
2018-05-10T14:05:52.681Z,20.17
2018-05-10T14:08:21.148Z,20.25
2018-05-10T14:10:49.614Z,20.20
2018-05-10T14:13:18.045Z,20.15
2018-05-10T14:15:46.520Z,20.08
2018-05-10T14:18:14.968Z,19.91
2018-05-10T14:20:43.402Z,19.70
2018-05-10T14:23:11.870Z,19.61
2018-05-10T14:25:40.304Z,19.57
2018-05-10T14:28:08.738Z,19.54
2018-05-10T14:30:37.257Z,19.56
2018-05-10T14:33:05.695Z,19.41
2018-05-10T14:35:34.144Z,19.40
2018-05-10T14:38:02.621Z,19.32
2018-05-10T14:40:31.048Z,19.42
2018-05-10T14:42:59.499Z,19.29
2018-05-10T14:45:27.976Z,19.23
2018-05-10T14:47:56.429Z,19.29
2018-05-10T14:50:24.858Z,19.27
2018-05-10T14:52:53.333Z,19.26
2018-05-10T14:55:21.756Z,19.08
2018-05-10T14:57:50.223Z,19.13
2018-05-10T15:00:18.696Z,19.10
2018-05-10T15:02:47.134Z,19.16
2018-05-10T15:05:15.557Z,19.09
2018-05-10T15:07:44.008Z,19.13
2018-05-10T15:10:12.421Z,18.99
2018-05-10T15:12:40.859Z,18.98
2018-05-10T15:15:09.327Z,18.84
2018-05-10T15:17:37.732Z,18.90
2018-05-10T15:20:06.198Z,18.90
2018-05-10T15:22:34.645Z,18.97
2018-05-10T15:25:03.081Z,18.96
2018-05-10T15:27:31.540Z,18.99
2018-05-10T15:30:00.017Z,18.90
2018-05-10T15:32:28.450Z,18.82
2018-05-10T15:34:56.868Z,18.78
2018-05-10T15:37:25.340Z,18.82
2018-05-10T15:39:53.754Z,18.69
2018-05-10T15:42:22.169Z,18.87
2018-05-10T15:44:50.613Z,18.82
2018-05-10T15:47:19.055Z,18.80
2018-05-10T15:49:47.462Z,18.88
2018-05-10T15:52:15.929Z,18.93
2018-05-10T15:54:44.348Z,18.85
2018-05-10T15:57:12.802Z,18.57
2018-05-10T15:59:41.268Z,18.64
2018-05-10T16:02:09.693Z,18.68
2018-05-10T16:04:38.133Z,18.64
2018-05-10T16:07:06.593Z,18.74
2018-05-10T16:09:35.017Z,18.69
2018-05-10T16:12:03.481Z,18.63
2018-05-10T16:14:31.934Z,18.72
2018-05-10T16:17:00.365Z,18.67
2018-05-10T16:19:28.808Z,18.65
2018-05-10T16:21:57.270Z,18.66
2018-05-10T16:24:25.696Z,18.48
2018-05-10T16:26:54.117Z,18.37
2018-05-10T16:29:22.572Z,18.30
2018-05-10T16:31:50.987Z,18.25
2018-05-10T16:34:19.404Z,18.19
2018-05-10T16:36:47.859Z,18.13
2018-05-10T16:39:16.298Z,18.11
2018-05-10T16:41:44.722Z,17.95
2018-05-10T16:44:13.176Z,17.92
2018-05-10T16:46:41.590Z,17.85
2018-05-10T16:49:10.031Z,17.79
2018-05-10T16:51:38.515Z,17.78
2018-05-10T16:54:06.949Z,17.83
2018-05-10T16:56:35.385Z,17.80
2018-05-10T16:59:03.856Z,17.75
2018-05-10T17:01:32.288Z,17.70
2018-05-10T17:04:00.777Z,17.65
2018-05-10T17:06:29.257Z,17.62
2018-05-10T17:08:57.678Z,17.55
2018-05-10T17:11:26.090Z,17.49
2018-05-10T17:13:54.532Z,17.50
2018-05-10T17:16:22.958Z,17.50
2018-05-10T17:18:51.384Z,17.46
2018-05-10T17:21:19.832Z,17.43
2018-05-10T17:23:48.264Z,17.30
2018-05-10T17:26:17.624Z,17.30
2018-05-10T17:28:46.103Z,17.33
2018-05-10T17:31:14.530Z,17.28
2018-05-10T17:33:42.947Z,17.30
2018-05-10T17:36:11.416Z,17.23
2018-05-10T17:38:39.842Z,17.13
2018-05-10T17:41:08.252Z,17.01
2018-05-10T17:43:36.734Z,17.09
2018-05-10T17:46:05.149Z,17.01
2018-05-10T17:48:33.577Z,16.99
2018-05-10T17:51:02.037Z,17.01
2018-05-10T17:53:30.460Z,17.09
2018-05-10T17:55:58.876Z,17.02
2018-05-10T17:58:28.716Z,16.99
2018-05-10T18:00:57.152Z,16.94
2018-05-10T18:03:25.559Z,16.87
2018-05-10T18:05:54.031Z,16.83
2018-05-10T18:08:22.441Z,16.84
2018-05-10T18:10:50.857Z,16.77
2018-05-10T18:13:19.328Z,16.85
2018-05-10T18:15:48.395Z,16.84
2018-05-10T18:18:16.805Z,16.87
2018-05-10T18:20:45.285Z,16.87
2018-05-10T18:23:13.757Z,16.78
2018-05-10T18:25:42.185Z,16.84
2018-05-10T18:28:10.665Z,16.74
2018-05-10T18:30:39.080Z,16.73
2018-05-10T18:33:07.533Z,16.72
2018-05-10T18:35:36.018Z,16.70
2018-05-10T18:38:04.436Z,16.68
2018-05-10T18:40:32.858Z,16.75
2018-05-10T18:43:01.330Z,16.67
2018-05-10T18:45:29.741Z,16.61
2018-05-10T18:47:58.564Z,16.63
2018-05-10T18:50:27.032Z,16.53
2018-05-10T18:52:55.466Z,16.59
2018-05-10T18:55:23.872Z,16.53
2018-05-10T18:57:52.335Z,16.52
2018-05-10T19:00:20.756Z,16.49
2018-05-10T19:02:49.176Z,16.45
2018-05-10T19:05:17.657Z,16.35
2018-05-10T19:07:46.073Z,16.32
2018-05-10T19:10:14.481Z,16.28
2018-05-10T19:12:42.951Z,16.39
2018-05-10T19:15:11.403Z,16.41
2018-05-10T19:17:39.813Z,16.38
2018-05-10T19:20:08.312Z,16.32
2018-05-10T19:22:36.735Z,16.29
2018-05-10T19:25:05.148Z,16.37
2018-05-10T19:27:33.670Z,16.35
2018-05-10T19:30:02.077Z,16.32
2018-05-10T19:32:30.515Z,16.34
2018-05-10T19:34:58.970Z,16.25
2018-05-10T19:37:27.383Z,16.09
2018-05-10T19:39:55.795Z,16.02
2018-05-10T19:42:24.252Z,15.98
2018-05-10T19:44:52.676Z,15.96
2018-05-10T19:47:21.091Z,15.95
2018-05-10T19:49:49.549Z,15.86
2018-05-10T19:52:17.996Z,15.88
2018-05-10T19:54:46.426Z,15.84
2018-05-10T19:57:14.893Z,15.79
2018-05-10T19:59:43.322Z,15.77
2018-05-10T20:02:11.752Z,15.66
2018-05-10T20:04:40.277Z,15.73
2018-05-10T20:07:08.691Z,15.67
2018-05-10T20:09:37.106Z,15.72
2018-05-10T20:12:05.565Z,15.66
2018-05-10T20:14:34.040Z,15.61
2018-05-10T20:17:02.522Z,15.63
2018-05-10T20:19:30.986Z,15.65
2018-05-10T20:21:59.412Z,15.63
2018-05-10T20:24:27.863Z,15.62
2018-05-10T20:26:56.350Z,15.63
2018-05-10T20:29:24.777Z,15.65
2018-05-10T20:31:53.216Z,15.62
2018-05-10T20:34:21.680Z,15.65
2018-05-10T20:36:50.100Z,15.54
2018-05-10T20:39:18.516Z,15.54
2018-05-10T20:41:47.055Z,15.53
2018-05-10T20:44:15.491Z,15.60
2018-05-10T20:46:43.935Z,15.49
2018-05-10T20:49:12.413Z,15.47
2018-05-10T20:51:40.832Z,15.45
2018-05-10T20:54:09.260Z,15.43
2018-05-10T20:56:37.735Z,15.50
2018-05-10T20:59:06.175Z,15.46
2018-05-10T21:01:34.592Z,15.37
2018-05-10T21:04:03.056Z,15.35
2018-05-10T21:06:31.473Z,15.31
2018-05-10T21:08:59.892Z,15.34
2018-05-10T21:11:28.373Z,15.25
2018-05-10T21:13:56.808Z,15.27
2018-05-10T21:16:25.244Z,15.28
2018-05-10T21:18:53.751Z,15.24
2018-05-10T21:21:22.168Z,15.17
2018-05-10T21:23:50.614Z,15.18
2018-05-10T21:26:19.076Z,15.10
2018-05-10T21:28:47.487Z,15.10
2018-05-10T21:31:15.908Z,15.08
2018-05-10T21:33:44.409Z,15.10
2018-05-10T21:36:12.852Z,15.11
2018-05-10T21:38:41.281Z,15.07
2018-05-10T21:41:09.744Z,15.02
2018-05-10T21:43:38.176Z,14.95
2018-05-10T21:46:06.593Z,15.01
2018-05-10T21:48:35.080Z,15.03
2018-05-10T21:51:03.505Z,15.00
2018-05-10T21:53:31.925Z,15.07
2018-05-10T21:56:00.396Z,15.04
2018-05-10T21:58:28.817Z,15.08
2018-05-10T22:00:57.233Z,14.98
2018-05-10T22:03:25.702Z,14.89
2018-05-10T22:05:54.149Z,15.06
2018-05-10T22:08:22.562Z,14.99
2018-05-10T22:10:51.024Z,14.91
2018-05-10T22:13:19.450Z,14.97
2018-05-10T22:15:47.901Z,14.93
2018-05-10T22:18:16.375Z,14.80
2018-05-10T22:20:44.808Z,14.83
2018-05-10T22:23:13.227Z,14.86
2018-05-10T22:25:41.696Z,14.89
2018-05-10T22:28:10.113Z,14.88
2018-05-10T22:30:38.537Z,14.81
2018-05-10T22:33:07.013Z,14.76
2018-05-10T22:35:35.507Z,14.64
2018-05-10T22:38:03.885Z,14.61
2018-05-10T22:40:32.384Z,14.66
2018-05-10T22:43:00.814Z,14.73
2018-05-10T22:45:29.244Z,14.76
2018-05-10T22:47:57.723Z,14.75
2018-05-10T22:50:26.132Z,14.68
2018-05-10T22:52:54.554Z,14.68
2018-05-10T22:55:23.038Z,14.69
2018-05-10T22:57:51.465Z,14.66
2018-05-10T23:00:19.893Z,14.66
2018-05-10T23:02:48.352Z,14.61
2018-05-10T23:05:16.794Z,14.60
2018-05-10T23:07:45.222Z,14.58
2018-05-10T23:10:13.676Z,14.52
2018-05-10T23:12:42.100Z,14.55
2018-05-10T23:15:10.519Z,14.54
2018-05-10T23:17:38.995Z,14.43
2018-05-10T23:20:07.414Z,14.53
2018-05-10T23:22:35.850Z,14.50
2018-05-10T23:25:04.349Z,14.44
2018-05-10T23:27:32.771Z,14.36
2018-05-10T23:30:01.206Z,14.36
2018-05-10T23:32:29.692Z,14.34
2018-05-10T23:34:58.140Z,14.37
2018-05-10T23:37:26.577Z,14.33
2018-05-10T23:39:55.040Z,14.23
2018-05-10T23:42:23.472Z,14.25
2018-05-10T23:44:51.892Z,14.25
2018-05-10T23:47:20.364Z,14.15
2018-05-10T23:49:48.793Z,14.11
2018-05-10T23:52:17.221Z,14.00
2018-05-10T23:54:45.701Z,14.03
2018-05-10T23:57:14.125Z,14.02
2018-05-10T23:59:42.559Z,14.05
